Terminal Aerodrome Forecast
Issued by NWS Charleston, WV

Current Version | Previous Version | Graphics & Text | Print | Product List | Glossary On
Versions: 1 2 3 4 5 6 7 8 9 10 11 12 13 14 15 16 17 18 19
059
FTUS41 KRLX 081124
TAFBKW
TAF
KBKW 081124Z 0812/0912 19006KT P6SM OVC080
     FM081400 18006KT 5SM -SHRASN OVC040
     FM081500 18006KT 4SM -SHRA OVC023
     FM081600 19006KT 3SM -SHRA OVC014
     FM081800 20007KT 2SM -SHRA OVC008
     FM082300 26005KT 2SM -SHRASN OVC007
     FM090600 27007KT 2SM -SHSN OVC009=

USA.gov is the U.S. government's official web portal to all federal, state and local government web resources and services.